Time;durP1;ratioP1;P1;durP2;ratioP2;P2;SDS_P1;SDS_P2;PMS_P1;PMS_P2;Temp;Humidity;BMP_temperature;BMP_pressure;BME280_temperature;BME280_humidity;BME280_pressure;Samples;Min_cycle;Max_cycle;Signal;HPM_P1;HPM_P2
2022/05/06 00:02:02;;;;;;;;;;;;;;;-144.99;85.24;52305.41;5051830;28;19956;-68
2022/05/06 00:04:29;;;;;;;;;;;;;;;-144.99;85.01;52321.72;5048085;28;20322;-69
2022/05/06 00:06:55;;;;;;;;;;;;;;;-144.99;84.80;52317.66;5050487;28;19925;-69
2022/05/06 00:09:23;;;;;;;;;;;;;;;-144.99;84.68;52301.34;5056901;28;19971;-70
2022/05/06 00:11:51;;;;;;;;;;;;;;;-144.99;84.44;52299.31;5049687;28;19931;-69
2022/05/06 00:14:17;;;;;;;;;;;;;;;-144.99;84.31;52272.81;5050764;28;19928;-68
2022/05/06 00:16:43;;;;;;;;;;;;;;;-144.99;84.45;52333.94;5048415;28;19928;-69
2022/05/06 00:19:10;;;;;;;;;;;;;;;-144.99;84.59;52313.56;5048927;28;19951;-70
2022/05/06 00:21:36;;;;;;;;;;;;;;;-144.99;84.49;52309.50;5050150;28;19932;-70
2022/05/06 00:24:03;;;;;;;;;;;;;;;-144.99;84.71;52336.00;5049395;28;19967;-70
2022/05/06 00:26:30;;;;;;;;;;;;;;;-144.99;85.25;52291.16;5052744;28;19935;-69
2022/05/06 00:28:57;;;;;;;;;;;;;;;-144.99;86.12;52325.81;5049694;28;20133;-69
2022/05/06 00:31:23;;;;;;;;;;;;;;;-144.99;86.69;52313.56;5047895;28;19936;-68
2022/05/06 00:33:49;;;;;;;;;;;;;;;-144.99;86.83;52305.41;5045887;28;19947;-69
2022/05/06 00:36:16;;;;;;;;;;;;;;;-144.99;87.43;52293.19;5048480;28;20020;-68
2022/05/06 00:38:43;;;;;;;;;;;;;;;-144.99;87.54;52317.66;5047330;28;19929;-68
2022/05/06 00:41:09;;;;;;;;;;;;;;;-144.99;87.14;52299.31;5047511;28;20285;-68
2022/05/06 00:43:40;;;;;;;;;;;;;;;-144.99;87.50;52321.72;5047283;28;20161;-68
2022/05/06 00:46:08;;;;;;;;;;;;;;;-144.99;87.31;52315.59;5047572;28;19932;-69
2022/05/06 00:48:35;;;;;;;;;;;;;;;-144.99;87.21;52325.81;5047735;28;19925;-68
2022/05/06 00:51:06;;;;;;;;;;;;;;;-144.99;87.41;52321.72;5047454;28;19924;-68
2022/05/06 00:53:32;;;;;;;;;;;;;;;-144.99;87.19;52325.81;5045001;28;20020;-69
2022/05/06 00:55:59;;;;;;;;;;;;;;;-144.99;87.25;52350.25;5051990;28;19924;-70
2022/05/06 00:58:29;;;;;;;;;;;;;;;-144.99;87.28;52319.69;5058507;28;19924;-70
2022/05/06 01:00:56;;;;;;;;;;;;;;;-144.99;87.39;52321.72;5047884;28;20015;-70
2022/05/06 01:03:23;;;;;;;;;;;;;;;-144.99;87.46;52354.34;5051000;28;19967;-70
2022/05/06 01:05:50;;;;;;;;;;;;;;;-144.99;87.81;52333.94;5054951;28;19931;-71
2022/05/06 01:08:17;;;;;;;;;;;;;;;-144.99;88.36;52295.22;5057868;28;19929;-71
2022/05/06 01:10:44;;;;;;;;;;;;;;;-144.99;88.14;52309.50;5050785;28;20366;-71
2022/05/06 01:13:10;;;;;;;;;;;;;;;-144.99;87.98;52309.50;5056049;28;19935;-71
2022/05/06 01:15:38;;;;;;;;;;;;;;;-144.99;87.95;52325.81;5053341;28;20336;-71
2022/05/06 01:18:05;;;;;;;;;;;;;;;-144.99;88.35;52325.81;5047118;28;19924;-71
2022/05/06 01:20:38;;;;;;;;;;;;;;;-144.99;89.02;52309.50;5053496;28;19933;-68
2022/05/06 01:23:06;;;;;;;;;;;;;;;-144.99;89.10;52293.19;5050309;28;19928;-69
2022/05/06 01:25:33;;;;;;;;;;;;;;;-144.99;89.22;52321.72;5051538;28;19924;-69
2022/05/06 01:28:03;;;;;;;;;;;;;;;-144.99;89.14;52291.16;5050849;28;19980;-68
2022/05/06 01:30:33;;;;;;;;;;;;;;;-144.99;89.34;52350.25;5044390;28;19925;-68
2022/05/06 01:33:00;;;;;;;;;;;;;;;-144.99;89.63;52342.09;5045981;28;19964;-67
2022/05/06 01:35:28;;;;;;;;;;;;;;;-144.99;90.19;52305.41;5046068;28;19925;-69
2022/05/06 01:37:55;;;;;;;;;;;;;;;-144.99;90.02;52350.25;5046417;28;20027;-69
2022/05/06 01:40:25;;;;;;;;;;;;;;;-144.99;89.76;52317.66;5046522;28;19933;-69
2022/05/06 01:42:53;;;;;;;;;;;;;;;-144.99;89.73;52313.56;5045688;28;19928;-69
2022/05/06 01:45:22;;;;;;;;;;;;;;;-144.99;89.37;52342.09;5046540;28;19929;-69
2022/05/06 01:47:50;;;;;;;;;;;;;;;-144.99;89.77;52295.22;5044854;28;20076;-68
2022/05/06 01:50:17;;;;;;;;;;;;;;;-144.99;89.50;52336.00;5045724;28;19924;-69
2022/05/06 01:52:44;;;;;;;;;;;;;;;-144.99;89.14;52325.81;5046350;28;19931;-70
2022/05/06 01:55:12;;;;;;;;;;;;;;;-144.99;89.23;52301.34;5046068;28;19925;-68
2022/05/06 01:57:40;;;;;;;;;;;;;;;-144.99;88.90;52313.56;5047962;28;19939;-68
2022/05/06 02:00:07;;;;;;;;;;;;;;;-144.99;89.46;52321.72;5048884;28;19932;-68
2022/05/06 02:02:33;;;;;;;;;;;;;;;-144.99;89.20;52317.66;5044716;28;19932;-68
2022/05/06 02:05:17;;;;;;;;;;;;;;;-144.99;89.07;52291.16;5047901;28;19929;-69
2022/05/06 02:07:43;;;;;;;;;;;;;;;-144.99;88.62;52317.66;5046718;28;19924;-68
2022/05/06 02:10:10;;;;;;;;;;;;;;;-144.99;88.32;52356.38;5046529;28;20356;-70
2022/05/06 02:12:36;;;;;;;;;;;;;;;-144.99;88.33;52362.50;5044712;28;19968;-69
2022/05/06 02:15:04;;;;;;;;;;;;;;;-144.99;88.23;52313.56;5050886;28;19931;-70
2022/05/06 02:17:30;;;;;;;;;;;;;;;-144.99;88.51;52354.34;5049995;28;20394;-69
2022/05/06 02:19:56;;;;;;;;;;;;;;;-144.99;88.46;52333.94;5049088;28;20424;-69
2022/05/06 02:22:23;;;;;;;;;;;;;;;-144.99;88.82;52313.56;5049693;28;20058;-69
2022/05/06 02:24:50;;;;;;;;;;;;;;;-144.99;89.07;52325.81;5046866;28;19932;-69
2022/05/06 02:27:16;;;;;;;;;;;;;;;-144.99;89.45;52319.69;5048323;28;19932;-70
2022/05/06 02:33:12;;;;;;;;;;;;;;;-144.99;89.98;52317.66;5046871;28;19924;-69
2022/05/06 02:35:29;;;;;;;;;;;;;;;-144.99;90.72;52319.69;4965606;28;20073;-69
2022/05/06 02:37:55;;;;;;;;;;;;;;;-144.99;90.88;52342.09;4967825;28;20007;-69
2022/05/06 02:40:21;;;;;;;;;;;;;;;-144.99;91.26;52313.56;5002048;28;20467;-69
2022/05/06 02:42:48;;;;;;;;;;;;;;;-144.99;91.05;52333.94;5048142;28;19925;-68
2022/05/06 02:45:14;;;;;;;;;;;;;;;-144.99;90.57;52325.81;5048752;28;19929;-70
2022/05/06 02:47:41;;;;;;;;;;;;;;;-144.99;90.02;52325.81;5050171;28;19975;-68
2022/05/06 02:50:08;;;;;;;;;;;;;;;-144.99;89.89;52342.09;5049788;28;20041;-69
2022/05/06 02:52:35;;;;;;;;;;;;;;;-144.99;90.90;52354.34;5048576;28;20415;-68
2022/05/06 02:55:01;;;;;;;;;;;;;;;-144.99;91.47;52309.50;5049649;28;19924;-68
2022/05/06 02:57:27;;;;;;;;;;;;;;;-144.99;91.84;52338.03;5050499;28;20174;-68
2022/05/06 02:59:54;;;;;;;;;;;;;;;-144.99;92.35;52354.34;5049896;28;19925;-69
2022/05/06 03:02:20;;;;;;;;;;;;;;;-144.99;92.50;52342.09;5048431;28;19924;-69
2022/05/06 03:04:48;;;;;;;;;;;;;;;-144.99;92.77;52338.03;5048960;28;19925;-70
2022/05/06 03:07:14;;;;;;;;;;;;;;;-144.99;93.85;52313.56;5050940;28;19937;-68
2022/05/06 03:09:41;;;;;;;;;;;;;;;-144.99;94.43;52297.25;5050899;28;19944;-70
2022/05/06 03:12:08;;;;;;;;;;;;;;;-144.99;94.63;52338.03;5049684;28;20400;-69
2022/05/06 03:14:34;;;;;;;;;;;;;;;-144.99;94.90;52303.38;5049821;28;19932;-70
2022/05/06 03:17:01;;;;;;;;;;;;;;;-144.99;95.60;52309.50;5052066;28;19929;-69
2022/05/06 03:19:27;;;;;;;;;;;;;;;-144.99;96.06;52321.72;5049373;28;19933;-70
2022/05/06 03:21:55;;;;;;;;;;;;;;;-144.99;96.31;52348.22;5054994;28;19935;-70
2022/05/06 03:24:21;;;;;;;;;;;;;;;-144.99;97.20;52325.81;5053153;28;20083;-69
2022/05/06 03:26:48;;;;;;;;;;;;;;;-144.99;97.99;52333.94;5055655;28;19925;-69
2022/05/06 03:29:14;;;;;;;;;;;;;;;-144.99;98.51;52317.66;5053631;28;19925;-69
2022/05/06 03:31:40;;;;;;;;;;;;;;;-144.99;98.81;52321.72;5055117;28;19936;-69
2022/05/06 03:34:07;;;;;;;;;;;;;;;-144.99;99.55;52366.56;5054583;28;19932;-69
2022/05/06 03:36:33;;;;;;;;;;;;;;;-144.99;100.00;52293.19;5054415;28;19924;-69
2022/05/06 03:39:01;;;;;;;;;;;;;;;-144.99;100.00;52272.81;5056257;28;20286;-69
2022/05/06 03:41:28;;;;;;;;;;;;;;;-144.99;100.00;52307.47;5051424;28;20114;-69
2022/05/06 03:43:54;;;;;;;;;;;;;;;-144.99;100.00;52317.66;5054259;28;20396;-69
2022/05/06 03:46:20;;;;;;;;;;;;;;;-144.99;100.00;52293.19;5052614;28;19925;-69
2022/05/06 03:48:46;;;;;;;;;;;;;;;-144.99;100.00;52342.09;5052114;28;19932;-69
2022/05/06 03:51:20;;;;;;;;;;;;;;;-144.99;100.00;52297.25;5052495;28;19928;-67
2022/05/06 03:53:47;;;;;;;;;;;;;;;-144.99;100.00;52317.66;5049826;28;19978;-68
2022/05/06 03:56:15;;;;;;;;;;;;;;;-144.99;100.00;52338.03;5050201;28;19928;-67
2022/05/06 03:58:41;;;;;;;;;;;;;;;-144.99;100.00;52325.81;5050305;28;19932;-69
2022/05/06 04:01:08;;;;;;;;;;;;;;;-144.99;100.00;52329.88;5051974;28;20392;-69
2022/05/06 04:03:34;;;;;;;;;;;;;;;-144.99;100.00;52342.09;5049446;28;19963;-69
2022/05/06 04:06:01;;;;;;;;;;;;;;;-144.99;100.00;52297.25;5047214;28;19929;-70
2022/05/06 04:08:27;;;;;;;;;;;;;;;-144.99;100.00;52372.69;5048382;28;19954;-70
2022/05/06 04:10:54;;;;;;;;;;;;;;;-144.99;100.00;52301.34;5047677;28;19964;-68
2022/05/06 04:13:21;;;;;;;;;;;;;;;-144.99;100.00;52313.56;5047032;28;20426;-69
2022/05/06 04:15:48;;;;;;;;;;;;;;;-144.99;100.00;52301.34;5046635;28;19932;-70
2022/05/06 04:18:14;;;;;;;;;;;;;;;-144.99;100.00;52291.16;5047962;28;19929;-70
2022/05/06 04:23:39;;;;;;;;;;;;;;;-144.99;100.00;52309.50;4987440;28;20411;-72
2022/05/06 04:26:07;;;;;;;;;;;;;;;-144.99;100.00;52297.25;4989031;28;19926;-73
2022/05/06 04:28:35;;;;;;;;;;;;;;;-144.99;100.00;52301.34;5016791;28;20340;-73
2022/05/06 04:31:01;;;;;;;;;;;;;;;-144.99;100.00;52338.03;5047782;28;20169;-73
2022/05/06 04:33:28;;;;;;;;;;;;;;;-144.99;100.00;52297.25;5048486;28;19925;-72
2022/05/06 04:35:56;;;;;;;;;;;;;;;-144.99;100.00;52301.34;5046144;28;19925;-72
2022/05/06 04:38:23;;;;;;;;;;;;;;;-144.99;100.00;52293.19;5048564;28;20015;-72
2022/05/06 04:40:51;;;;;;;;;;;;;;;-144.99;100.00;52313.56;5044498;28;19964;-72
2022/05/06 04:43:17;;;;;;;;;;;;;;;-144.99;100.00;52236.13;5047996;28;19928;-72
2022/05/06 04:45:45;;;;;;;;;;;;;;;-144.99;100.00;52329.88;5048431;28;19924;-71
2022/05/06 04:48:12;;;;;;;;;;;;;;;-144.99;100.00;52305.41;5048974;28;19924;-69
2022/05/06 04:50:39;;;;;;;;;;;;;;;-144.99;100.00;52301.34;5048300;28;19929;-70
2022/05/06 04:53:07;;;;;;;;;;;;;;;-144.99;100.00;52293.19;5048490;28;19936;-70
2022/05/06 04:55:33;;;;;;;;;;;;;;;-144.99;100.00;52295.22;5046903;28;19925;-71
2022/05/06 04:57:59;;;;;;;;;;;;;;;-144.99;100.00;52295.22;5047249;28;19933;-71
2022/05/06 05:00:26;;;;;;;;;;;;;;;-144.99;100.00;52289.13;5045856;28;19948;-71
2022/05/06 05:02:53;;;;;;;;;;;;;;;-144.99;100.00;52297.25;5046827;28;20295;-70
2022/05/06 05:05:20;;;;;;;;;;;;;;;-144.99;100.00;52325.81;4344965;28;10000720;-70
2022/05/06 05:07:46;;;;;;;;;;;;;;;-144.99;100.00;52276.88;5042981;28;19947;-71
2022/05/06 05:10:13;;;;;;;;;;;;;;;-144.99;100.00;52268.72;5042076;28;19932;-71
2022/05/06 05:12:39;;;;;;;;;;;;;;;-144.99;100.00;52297.25;5043948;28;19924;-71
2022/05/06 05:15:06;;;;;;;;;;;;;;;-144.99;100.00;52268.72;5044506;28;19928;-71
2022/05/06 05:17:32;;;;;;;;;;;;;;;-144.99;100.00;52301.34;5042183;28;19929;-70
2022/05/06 05:20:00;;;;;;;;;;;;;;;-144.99;100.00;52293.19;5042129;28;20362;-72
2022/05/06 05:22:26;;;;;;;;;;;;;;;-144.99;100.00;52280.97;5042052;28;19933;-70
2022/05/06 05:24:53;;;;;;;;;;;;;;;-144.99;100.00;52280.97;5043285;28;19935;-70
2022/05/06 05:27:19;;;;;;;;;;;;;;;-144.99;100.00;52280.97;5042969;28;19929;-70
2022/05/06 05:29:46;;;;;;;;;;;;;;;-144.99;100.00;52280.97;5041552;28;19925;-70
2022/05/06 05:32:12;;;;;;;;;;;;;;;-144.99;100.00;52276.88;5042551;28;20284;-70
2022/05/06 05:34:41;;;;;;;;;;;;;;;-144.99;100.00;52309.50;5042320;28;20080;-70
2022/05/06 05:37:09;;;;;;;;;;;;;;;-144.99;100.00;52256.50;5042888;28;20637;-70
2022/05/06 05:39:36;;;;;;;;;;;;;;;-144.99;100.00;52283.00;5043169;28;20023;-71
2022/05/06 05:42:03;;;;;;;;;;;;;;;-144.99;100.00;52301.34;5041959;28;19998;-69
2022/05/06 05:49:57;;;;;;;;;;;;;;;-144.99;100.00;52268.72;5042887;28;19951;-71
2022/05/06 05:52:25;;;;;;;;;;;;;;;-144.99;100.00;52297.25;5042350;28;19924;-71
2022/05/06 05:54:51;;;;;;;;;;;;;;;-144.99;100.00;52309.50;5042299;28;19941;-73
2022/05/06 05:57:18;;;;;;;;;;;;;;;-144.99;100.00;52297.25;5041885;28;19931;-71
2022/05/06 05:59:47;;;;;;;;;;;;;;;-144.99;100.00;52268.72;5042107;28;20397;-71
2022/05/06 06:02:13;;;;;;;;;;;;;;;-144.99;100.00;52254.47;5042827;28;20375;-71
2022/05/06 06:04:41;;;;;;;;;;;;;;;-144.99;100.00;52317.66;5041102;28;20228;-73
2022/05/06 06:07:07;;;;;;;;;;;;;;;-144.99;100.00;52254.47;5040069;28;20458;-70
2022/05/06 06:09:35;;;;;;;;;;;;;;;-144.99;100.00;52276.88;5042072;28;19925;-71
2022/05/06 06:12:02;;;;;;;;;;;;;;;-144.99;100.00;52248.34;5041799;28;19960;-70
2022/05/06 06:14:28;;;;;;;;;;;;;;;-144.99;100.00;52248.34;5042310;28;20411;-71
2022/05/06 06:16:56;;;;;;;;;;;;;;;-144.99;100.00;52289.13;5042433;28;19925;-70
2022/05/06 06:19:22;;;;;;;;;;;;;;;-144.99;100.00;52272.81;5043550;28;20023;-70
2022/05/06 06:21:48;;;;;;;;;;;;;;;-144.99;100.00;52246.31;5041194;28;19955;-70
2022/05/06 06:24:15;;;;;;;;;;;;;;;-144.99;100.00;52285.03;5042880;28;20205;-70
2022/05/06 06:26:42;;;;;;;;;;;;;;;-144.99;99.74;52260.56;5042577;28;19933;-70
2022/05/06 06:29:09;;;;;;;;;;;;;;;-144.99;98.91;52248.34;5041573;28;20011;-70
2022/05/06 06:31:37;;;;;;;;;;;;;;;-144.99;97.41;52264.66;5041103;28;19932;-73
2022/05/06 06:34:03;;;;;;;;;;;;;;;-144.99;97.19;52256.50;5042364;28;19935;-70
2022/05/06 06:36:29;;;;;;;;;;;;;;;-144.99;96.79;52280.97;5059370;22;20394;-75
2022/05/06 06:38:56;;;;;;;;;;;;;;;-144.99;96.40;52242.22;4672927;28;9999823;-75
2022/05/06 06:41:23;;;;;;;;;;;;;;;-144.99;95.91;52240.19;5028279;28;19929;-74
2022/05/06 06:43:50;;;;;;;;;;;;;;;-144.99;95.37;52248.34;5023534;28;19952;-75
2022/05/06 06:46:17;;;;;;;;;;;;;;;-144.99;94.20;52215.75;5023485;28;19940;-74
2022/05/06 06:48:44;;;;;;;;;;;;;;;-144.99;92.81;52285.03;5030483;28;20004;-73
2022/05/06 06:51:10;;;;;;;;;;;;;;;-144.99;92.56;52244.28;5028224;28;19937;-75
2022/05/06 06:53:37;;;;;;;;;;;;;;;-144.99;92.14;52260.56;5029929;28;19925;-74
2022/05/06 06:56:03;;;;;;;;;;;;;;;-144.99;91.35;52225.94;5030169;28;19933;-74
2022/05/06 06:58:30;;;;;;;;;;;;;;;-144.99;90.94;52248.34;5030792;28;19929;-75
2022/05/06 07:00:58;;;;;;;;;;;;;;;-144.99;89.90;52225.94;5033423;28;19925;-74
2022/05/06 07:03:24;;;;;;;;;;;;;;;-144.99;88.07;52223.88;5029938;28;19933;-72
2022/05/06 07:14:05;;;;;;;;;;;;;;;-144.99;81.11;52187.19;5036043;28;19983;-74
2022/05/06 07:16:33;;;;;;;;;;;;;;;-144.99;79.88;52244.28;5030107;28;19931;-74
2022/05/06 07:18:59;;;;;;;;;;;;;;;-144.99;80.36;52189.25;5030142;28;19929;-74
2022/05/06 07:21:25;;;;;;;;;;;;;;;-144.99;79.26;52203.50;5034982;28;19933;-73
2022/05/06 07:23:52;;;;;;;;;;;;;;;-144.99;76.86;52227.97;5029526;28;19933;-74
2022/05/06 07:26:18;;;;;;;;;;;;;;;-144.99;75.35;52191.28;5032052;28;20244;-74
2022/05/06 07:28:44;;;;;;;;;;;;;;;-144.99;74.20;52217.78;5031302;28;19925;-73
2022/05/06 07:31:11;;;;;;;;;;;;;;;-144.99;74.87;52199.44;5034803;28;19933;-76
2022/05/06 07:33:38;;;;;;;;;;;;;;;-144.99;75.62;52244.28;5032314;28;19929;-73
2022/05/06 07:36:05;;;;;;;;;;;;;;;-144.99;74.27;52207.59;5030643;28;19933;-75
2022/05/06 07:38:31;;;;;;;;;;;;;;;-144.99;73.66;52207.59;5037956;28;19925;-75
2022/05/06 07:40:59;;;;;;;;;;;;;;;-144.99;72.97;52215.75;5039512;28;20024;-78
2022/05/06 07:43:25;;;;;;;;;;;;;;;-144.99;72.13;52219.81;5030841;28;19929;-75
2022/05/06 07:45:52;;;;;;;;;;;;;;;-144.99;73.27;52219.81;5033468;28;19935;-75
2022/05/06 07:48:19;;;;;;;;;;;;;;;-144.99;73.78;52219.81;5038265;28;20035;-75
2022/05/06 07:50:46;;;;;;;;;;;;;;;-144.99;73.38;52236.13;5036831;28;19933;-76
2022/05/06 07:53:13;;;;;;;;;;;;;;;-144.99;73.82;52207.59;5036168;28;19933;-76
2022/05/06 07:55:40;;;;;;;;;;;;;;;-144.99;73.16;52179.06;5033505;28;19925;-77
2022/05/06 07:58:06;;;;;;;;;;;;;;;-144.99;73.11;52223.88;5036688;28;19929;-77
2022/05/06 08:00:33;;;;;;;;;;;;;;;-144.99;72.90;52195.34;5039061;28;19928;-76
2022/05/06 08:05:46;;;;;;;;;;;;;;;-144.99;72.51;52199.44;5032013;28;20387;-77
2022/05/06 08:08:13;;;;;;;;;;;;;;;-144.99;70.94;52211.66;5033416;28;20372;-77
2022/05/06 08:10:40;;;;;;;;;;;;;;;-144.99;70.88;52191.28;5034520;28;19935;-78
2022/05/06 08:13:07;;;;;;;;;;;;;;;-144.99;70.03;52211.66;5034658;28;19933;-76
2022/05/06 08:15:33;;;;;;;;;;;;;;;-144.99;69.49;52183.13;5029699;28;20034;-78
2022/05/06 08:17:59;;;;;;;;;;;;;;;-144.99;69.38;52191.28;5030653;28;20231;-75
2022/05/06 08:20:26;;;;;;;;;;;;;;;-144.99;69.18;52203.50;5030656;28;19933;-78
2022/05/06 08:22:52;;;;;;;;;;;;;;;-144.99;67.14;52174.97;5030968;28;19929;-78
2022/05/06 08:25:20;;;;;;;;;;;;;;;-144.99;66.06;52170.91;5030725;28;19929;-76
2022/05/06 08:27:46;;;;;;;;;;;;;;;-144.99;65.84;52203.50;5031734;28;19929;-78
2022/05/06 08:30:13;;;;;;;;;;;;;;;-144.99;63.85;52191.28;5033401;28;20897;-78
2022/05/06 08:32:40;;;;;;;;;;;;;;;-144.99;63.40;52195.34;5036892;28;20008;-76
2022/05/06 08:35:07;;;;;;;;;;;;;;;-144.99;62.59;52191.28;5032207;28;20134;-77
2022/05/06 08:37:40;;;;;;;;;;;;;;;-144.99;61.27;52154.59;5034950;28;19925;-76
2022/05/06 08:40:07;;;;;;;;;;;;;;;-144.99;60.05;52166.81;5031977;28;19929;-77
2022/05/06 08:42:34;;;;;;;;;;;;;;;-144.99;60.33;52211.66;5030013;28;19987;-78
2022/05/06 08:53:13;;;;;;;;;;;;;;;-144.99;59.58;52183.13;5034281;28;19939;-75
2022/05/06 08:55:40;;;;;;;;;;;;;;;-144.99;59.19;52158.66;5032938;28;19932;-76
2022/05/06 08:58:07;;;;;;;;;;;;;;;-144.99;59.40;52166.81;5034346;28;19933;-78
2022/05/06 09:00:34;;;;;;;;;;;;;;;-144.99;59.10;52183.13;5051579;28;19951;-78
2022/05/06 09:03:00;;;;;;;;;;;;;;;-144.99;59.38;52172.94;5053480;28;19923;-76
2022/05/06 09:05:27;;;;;;;;;;;;;;;-144.99;57.85;52160.72;5056899;28;19913;-78
2022/05/06 09:07:57;;;;;;;;;;;;;;;-144.99;57.30;52160.72;5036809;28;19929;-77
2022/05/06 09:10:23;;;;;;;;;;;;;;;-144.99;57.64;52179.06;5037747;28;19929;-77
2022/05/06 09:12:52;;;;;;;;;;;;;;;-144.99;57.80;52162.75;5030207;28;19944;-77
2022/05/06 09:18:05;;;;;;;;;;;;;;;-144.99;55.81;52146.44;5029548;28;19939;-77
2022/05/06 09:20:32;;;;;;;;;;;;;;;-144.99;51.83;52126.06;5029131;28;19952;-78
2022/05/06 09:22:58;;;;;;;;;;;;;;;-144.99;51.07;52174.97;5045721;28;19941;-78
2022/05/06 09:25:34;;;;;;;;;;;;;;;-144.99;49.44;52081.22;5057614;28;19955;-78
2022/05/06 09:28:01;;;;;;;;;;;;;;;-144.99;48.55;52115.88;5052369;28;19913;-79
2022/05/06 09:30:28;;;;;;;;;;;;;;;-144.99;48.77;52077.16;5052528;28;19981;-79
2022/05/06 09:32:54;;;;;;;;;;;;;;;-144.99;48.24;52121.97;5057793;28;19913;-79
2022/05/06 09:35:21;;;;;;;;;;;;;;;-144.99;47.82;52119.94;5056987;28;19921;-79
2022/05/06 09:37:48;;;;;;;;;;;;;;;-144.99;47.60;52105.69;5054876;28;19920;-79
2022/05/06 09:40:15;;;;;;;;;;;;;;;-144.99;47.80;52109.75;5053620;28;19913;-79
2022/05/06 09:42:42;;;;;;;;;;;;;;;-144.99;47.63;52097.53;5052668;28;19940;-81
2022/05/06 09:45:09;;;;;;;;;;;;;;;-144.99;47.30;52124.03;5052270;28;19913;-80
2022/05/06 09:47:37;;;;;;;;;;;;;;;-144.99;46.47;52093.44;5056477;28;19974;-80
2022/05/06 09:50:05;;;;;;;;;;;;;;;-144.99;45.85;52062.88;5056380;28;19940;-79
2022/05/06 09:52:31;;;;;;;;;;;;;;;-144.99;45.07;52097.53;5055259;28;19921;-79
2022/05/06 09:54:58;;;;;;;;;;;;;;;-144.99;44.71;52052.69;5054190;28;19925;-80
2022/05/06 09:57:24;;;;;;;;;;;;;;;-144.99;44.21;52091.41;5057173;28;19916;-79
2022/05/06 09:59:51;;;;;;;;;;;;;;;-144.99;44.64;52101.59;5051640;28;19913;-79
2022/05/06 10:02:18;;;;;;;;;;;;;;;-144.99;44.44;52081.22;5055778;28;19921;-80
2022/05/06 10:04:47;;;;;;;;;;;;;;;-144.99;44.37;52040.47;5055263;28;19937;-80
2022/05/06 10:07:14;;;;;;;;;;;;;;;-144.99;44.17;52073.06;5056024;28;20084;-80
2022/05/06 10:09:42;;;;;;;;;;;;;;;-144.99;44.48;52032.31;5054668;28;19934;-81
2022/05/06 10:12:11;;;;;;;;;;;;;;;-144.99;44.01;52034.34;5054100;28;19913;-80
2022/05/06 10:14:40;;;;;;;;;;;;;;;-144.99;43.71;52020.09;5057530;28;19997;-80
2022/05/06 10:17:06;;;;;;;;;;;;;;;-144.99;43.42;52016.00;4702222;28;9999621;-80
2022/05/06 10:19:46;;;;;;;;;;;;;;;-144.99;43.29;52007.84;5053974;28;19924;-79
2022/05/06 10:22:13;;;;;;;;;;;;;;;-144.99;42.06;52044.53;5059924;28;20315;-79
2022/05/06 10:24:40;;;;;;;;;;;;;;;-144.99;42.56;52056.78;5059836;28;19920;-80
2022/05/06 10:27:21;;;;;;;;;;;;;;;-144.99;42.77;52097.53;5055657;28;19924;-82
2022/05/06 10:32:50;;;;;;;;;;;;;;;-144.99;42.90;52022.13;5063062;28;19923;-80
2022/05/06 10:35:17;;;;;;;;;;;;;;;-144.99;42.25;52005.81;5060723;28;19913;-81
2022/05/06 10:37:45;;;;;;;;;;;;;;;-144.99;41.44;51991.56;5061494;28;19921;-79
2022/05/06 10:40:28;;;;;;;;;;;;;;;-144.99;41.54;51983.41;5063766;28;19940;-82
2022/05/06 10:42:54;;;;;;;;;;;;;;;-144.99;41.30;51991.56;5055475;28;19913;-79
2022/05/06 10:45:25;;;;;;;;;;;;;;;-144.99;41.58;51997.66;5056085;28;19932;-79
2022/05/06 10:47:51;;;;;;;;;;;;;;;-144.99;41.49;51967.09;5045263;28;20398;-77
2022/05/06 10:50:21;;;;;;;;;;;;;;;-144.99;40.64;51967.09;5044959;28;20343;-78
2022/05/06 10:52:48;;;;;;;;;;;;;;;-144.99;40.67;51979.31;5048499;28;20320;-79
2022/05/06 10:55:16;;;;;;;;;;;;;;;-144.99;40.49;52069.00;5038896;28;19929;-78
2022/05/06 10:58:00;;;;;;;;;;;;;;;-144.99;40.54;51950.78;5040727;28;19925;-79
2022/05/06 11:00:28;;;;;;;;;;;;;;;-144.99;40.96;52117.91;5023262;28;19925;-80
2022/05/06 11:02:54;;;;;;;;;;;;;;;-144.99;41.42;52073.06;5037898;28;19925;-79
2022/05/06 11:05:24;;;;;;;;;;;;;;;-144.99;41.06;51914.09;5044802;28;20184;-79
2022/05/06 11:07:53;;;;;;;;;;;;;;;-144.99;40.16;52054.72;5036761;28;19931;-79
2022/05/06 11:10:21;;;;;;;;;;;;;;;-144.99;39.95;52089.38;5052990;28;19936;-78
2022/05/06 11:12:48;;;;;;;;;;;;;;;-144.99;40.45;52056.78;5045571;28;20377;-79
2022/05/06 11:15:15;;;;;;;;;;;;;;;-144.99;40.69;51946.72;5039955;28;20364;-78
2022/05/06 11:17:45;;;;;;;;;;;;;;;-144.99;40.50;51942.63;5025745;28;19940;-77
2022/05/06 11:20:23;;;;;;;;;;;;;;;-144.99;39.50;51938.56;5034760;28;19936;-78
2022/05/06 11:22:53;;;;;;;;;;;;;;;-144.99;38.62;51916.16;5043749;28;19933;-77
2022/05/06 11:25:21;;;;;;;;;;;;;;;-144.99;39.35;51918.19;5031712;28;20060;-79
2022/05/06 11:27:48;;;;;;;;;;;;;;;-144.99;39.19;51942.63;5036751;28;20001;-78
2022/05/06 11:30:17;;;;;;;;;;;;;;;-144.99;39.02;51948.75;5033185;28;20372;-78
2022/05/06 11:32:47;;;;;;;;;;;;;;;-144.99;38.38;51912.06;5041536;28;19940;-76
2022/05/06 11:35:16;;;;;;;;;;;;;;;-144.99;38.33;51938.56;5038560;28;20325;-79
2022/05/06 11:37:44;;;;;;;;;;;;;;;-144.99;38.28;51918.19;5037531;28;20300;-81
2022/05/06 11:40:33;;;;;;;;;;;;;;;-144.99;38.32;52052.69;5047419;28;19932;-79
2022/05/06 11:43:00;;;;;;;;;;;;;;;-144.99;38.20;51963.03;5027871;28;19936;-78
2022/05/06 11:48:11;;;;;;;;;;;;;;;-144.99;38.36;51958.94;5036687;28;20360;-76
2022/05/06 11:50:38;;;;;;;;;;;;;;;-144.99;38.60;51952.81;5035392;28;20176;-76
2022/05/06 11:53:08;;;;;;;;;;;;;;;-144.99;37.67;51938.56;5040101;28;19933;-77
2022/05/06 11:55:35;;;;;;;;;;;;;;;-144.99;36.96;51918.19;5033268;28;20360;-76
2022/05/06 11:58:02;;;;;;;;;;;;;;;-144.99;37.25;51958.94;5037817;28;19932;-78
2022/05/06 12:00:29;;;;;;;;;;;;;;;-144.99;36.74;51942.63;5042073;28;19928;-77
2022/05/06 12:02:56;;;;;;;;;;;;;;;-144.99;36.38;51950.78;5033801;28;20423;-77
2022/05/06 12:05:22;;;;;;;;;;;;;;;-144.99;35.75;51938.56;5036656;28;19925;-77
2022/05/06 12:07:49;;;;;;;;;;;;;;;-144.99;36.24;52022.13;5036741;28;19940;-77
2022/05/06 12:10:25;;;;;;;;;;;;;;;-144.99;36.63;51999.69;5039480;28;19929;-79
2022/05/06 12:12:55;;;;;;;;;;;;;;;-144.99;37.02;52028.22;5029384;28;19960;-77
2022/05/06 12:15:28;;;;;;;;;;;;;;;-144.99;37.38;52003.78;5035576;28;19932;-78
2022/05/06 12:18:00;;;;;;;;;;;;;;;-144.99;36.79;51948.75;5025055;28;20068;-76
2022/05/06 12:20:30;;;;;;;;;;;;;;;-144.99;37.04;52022.13;5034283;28;19931;-77
2022/05/06 12:22:58;;;;;;;;;;;;;;;-144.99;36.90;51979.31;5038410;28;19925;-77
2022/05/06 12:25:26;;;;;;;;;;;;;;;-144.99;36.32;52009.91;5032435;28;20040;-80
2022/05/06 12:28:03;;;;;;;;;;;;;;;-144.99;36.17;52020.09;5033070;28;19933;-76
2022/05/06 12:30:30;;;;;;;;;;;;;;;-144.99;36.90;52044.53;5037958;28;19913;-79
2022/05/06 12:33:01;;;;;;;;;;;;;;;-144.99;37.02;52044.53;5055725;28;20025;-78
2022/05/06 12:35:27;;;;;;;;;;;;;;;-144.99;37.34;52069.00;5047397;28;19925;-78
2022/05/06 12:37:54;;;;;;;;;;;;;;;-144.99;37.48;52032.31;5033062;28;19929;-78
2022/05/06 12:40:20;;;;;;;;;;;;;;;-144.99;37.38;52028.22;5042489;28;20027;-78
2022/05/06 12:45:51;;;;;;;;;;;;;;;-144.99;36.72;52064.91;5103877;27;19971;-71
2022/05/06 12:51:02;;;;;;;;;;;;;;;-144.99;36.70;52032.31;5066446;28;19935;-69
2022/05/06 12:53:29;;;;;;;;;;;;;;;-144.99;36.83;52036.38;5065875;28;20046;-70
2022/05/06 12:55:55;;;;;;;;;;;;;;;-144.99;37.15;52040.47;5063715;28;20347;-70
2022/05/06 12:58:27;;;;;;;;;;;;;;;-144.99;37.30;52087.34;5069855;28;19928;-71
2022/05/06 13:00:55;;;;;;;;;;;;;;;-144.99;37.48;52089.38;5068764;28;20385;-71
2022/05/06 13:03:21;;;;;;;;;;;;;;;-144.99;37.60;52066.97;5069229;28;20510;-70
2022/05/06 13:05:48;;;;;;;;;;;;;;;-144.99;37.26;52077.16;5069644;28;19931;-70
2022/05/06 13:08:14;;;;;;;;;;;;;;;-144.99;36.85;52036.38;5068466;28;20396;-71
2022/05/06 13:10:41;;;;;;;;;;;;;;;-144.99;37.00;52020.09;5066804;28;19929;-71
2022/05/06 13:13:07;;;;;;;;;;;;;;;-144.99;37.07;52034.34;5069608;28;19983;-71